createdAt,value
2019-04-21T00:02:32.534Z,20.35
2019-04-21T00:13:05.059Z,21.20
2019-04-21T00:17:57.491Z,21.56
2019-04-21T00:23:19.564Z,23.29
2019-04-21T00:28:39.266Z,22.09
2019-04-21T00:33:26.781Z,20.61
2019-04-21T00:38:59.128Z,21.40
2019-04-21T00:43:48.961Z,22.91
2019-04-21T00:49:01.326Z,22.42
2019-04-21T00:54:21.377Z,23.63
2019-04-21T00:59:19.328Z,22.55
2019-04-21T01:04:39.979Z,21.87
2019-04-21T01:09:32.720Z,22.42
2019-04-21T01:14:55.432Z,21.85
2019-04-21T01:19:51.190Z,23.80
2019-04-21T01:24:59.264Z,24.51
2019-04-21T01:30:14.150Z,21.87
2019-04-21T01:35:21.086Z,23.61
2019-04-21T01:40:33.789Z,24.26
2019-04-21T01:45:43.459Z,22.91
2019-04-21T01:50:47.214Z,23.50
2019-04-21T01:55:54.570Z,23.35
2019-04-21T02:01:06.908Z,23.60
2019-04-21T02:06:18.059Z,27.10
2019-04-21T02:11:31.422Z,25.73
2019-04-21T02:16:34.030Z,26.01
2019-04-21T02:21:39.297Z,26.06
2019-04-21T02:26:56.147Z,27.76
2019-04-21T02:32:01.686Z,27.91
2019-04-21T02:37:41.666Z,27.42
2019-04-21T02:42:32.377Z,29.25
2019-04-21T02:47:48.636Z,30.51
2019-04-21T02:58:01.996Z,32.55
2019-04-21T03:03:10.762Z,30.85
2019-04-21T03:08:22.806Z,30.42
2019-04-21T03:18:32.726Z,31.29
2019-04-21T03:34:27.618Z,34.25
2019-04-21T03:38:47.422Z,33.98
2019-04-21T03:44:14.599Z,35.12
2019-04-21T03:49:28.758Z,33.94
2019-04-21T03:54:39.179Z,36.77
2019-04-21T03:59:24.551Z,37.88
2019-04-21T04:10:03.598Z,34.66
2019-04-21T04:15:13.773Z,37.17
2019-04-21T04:25:15.534Z,37.81
2019-04-21T04:30:43.694Z,34.66
2019-04-21T04:35:52.401Z,38.96
2019-04-21T04:45:59.241Z,36.26
2019-04-21T04:51:01.346Z,38.49
2019-04-21T05:06:42.134Z,40.22
2019-04-21T05:11:48.807Z,42.47
2019-04-21T05:16:41.246Z,43.61
2019-04-21T05:21:55.029Z,43.28
2019-04-21T05:26:53.307Z,42.18
2019-04-21T05:32:07.891Z,44.73
2019-04-21T05:37:14.283Z,43.72
2019-04-21T05:42:15.346Z,43.74
2019-04-21T05:47:35.334Z,45.51
2019-04-21T05:52:38.149Z,47.28
2019-04-21T05:57:46.603Z,45.30
2019-04-21T06:02:57.743Z,47.08
2019-04-21T06:08:15.993Z,47.74
2019-04-21T06:13:13.829Z,47.89
2019-04-21T06:18:38.356Z,48.86
2019-04-21T06:23:30.060Z,49.81
2019-04-21T06:28:43.986Z,48.26
2019-04-21T06:33:48.808Z,48.39
2019-04-21T06:44:08.998Z,52.74
2019-04-21T06:49:08.583Z,56.52
2019-04-21T06:54:22.018Z,54.63
2019-04-21T06:59:29.698Z,55.44
2019-04-21T07:04:29.322Z,54.41
2019-04-21T07:09:46.056Z,58.28
2019-04-21T07:20:06.943Z,57.43
2019-04-21T07:25:13.886Z,62.44
2019-04-21T07:30:26.732Z,59.14
2019-04-21T07:40:34.881Z,59.67
2019-04-21T07:45:40.758Z,60.71
2019-04-21T07:51:00.834Z,59.22
2019-04-21T07:55:46.998Z,56.05
2019-04-21T08:01:12.400Z,56.06
2019-04-21T08:06:27.052Z,53.55
2019-04-21T08:11:25.412Z,53.67
2019-04-21T08:16:42.100Z,48.23
2019-04-21T08:21:51.454Z,47.22
2019-04-21T08:27:01.474Z,44.23
2019-04-21T08:37:13.938Z,40.39
2019-04-21T08:47:35.298Z,37.17
2019-04-21T08:52:56.198Z,35.45
2019-04-21T08:57:58.245Z,30.70
2019-04-21T09:03:01.766Z,30.25
2019-04-21T09:08:03.935Z,29.91
2019-04-21T09:13:12.519Z,30.59
2019-04-21T09:18:18.788Z,31.30
2019-04-21T09:23:32.923Z,28.80
2019-04-21T09:28:35.674Z,30.16
2019-04-21T09:33:37.660Z,27.65
2019-04-21T09:38:42.411Z,28.62
2019-04-21T09:43:52.649Z,24.39
2019-04-21T09:49:02.597Z,23.41
2019-04-21T09:54:14.538Z,23.88
2019-04-21T09:59:27.589Z,20.73
2019-04-21T10:04:26.631Z,18.80
2019-04-21T10:09:35.670Z,18.78
2019-04-21T10:14:45.223Z,18.48
2019-04-21T10:19:55.116Z,19.82
2019-04-21T10:25:04.644Z,18.97
2019-04-21T10:30:12.218Z,21.61
2019-04-21T10:35:23.079Z,17.93
2019-04-21T10:40:32.622Z,18.58
2019-04-21T10:45:39.211Z,19.76
2019-04-21T10:50:49.346Z,17.87
2019-04-21T10:56:10.489Z,20.14
2019-04-21T11:01:06.207Z,19.64
2019-04-21T11:06:15.077Z,20.70
2019-04-21T11:11:25.830Z,17.54
2019-04-21T11:16:33.257Z,18.35
2019-04-21T11:21:42.910Z,19.11
2019-04-21T11:26:51.963Z,20.48
2019-04-21T11:32:00.873Z,20.84
2019-04-21T11:37:08.532Z,22.52
2019-04-21T11:42:17.822Z,23.35
2019-04-21T11:47:28.030Z,25.29
2019-04-21T11:52:36.937Z,23.60
2019-04-21T11:57:46.918Z,25.47
2019-04-21T12:02:53.420Z,23.82
2019-04-21T12:08:02.146Z,21.81
2019-04-21T12:13:12.070Z,25.58
2019-04-21T12:18:20.096Z,24.30
2019-04-21T12:23:30.185Z,24.87
2019-04-21T12:28:37.998Z,21.28
2019-04-21T12:33:47.787Z,19.84
2019-04-21T12:38:59.321Z,24.19
2019-04-21T12:44:04.898Z,20.62
2019-04-21T12:49:14.089Z,21.70
2019-04-21T12:54:23.943Z,19.88
2019-04-21T12:59:34.222Z,21.00
2019-04-21T13:04:42.099Z,23.65
2019-04-21T13:09:52.506Z,24.40
2019-04-21T13:15:01.037Z,23.61
2019-04-21T13:20:09.542Z,23.02
2019-04-21T13:25:18.105Z,23.75
2019-04-21T13:30:26.424Z,24.82
2019-04-21T13:35:37.085Z,24.61
2019-04-21T13:40:57.024Z,23.54
2019-04-21T13:45:54.035Z,24.01
2019-04-21T13:51:01.697Z,23.37
2019-04-21T13:56:10.921Z,22.89
2019-04-21T14:01:21.343Z,23.64
2019-04-21T14:06:30.034Z,24.26
2019-04-21T14:11:37.719Z,26.16
2019-04-21T14:16:47.983Z,25.96
2019-04-21T14:21:57.018Z,31.84
2019-04-21T14:27:04.389Z,28.04
2019-04-21T14:32:14.036Z,33.10
2019-04-21T14:37:22.656Z,36.20
2019-04-21T14:42:31.962Z,31.89
2019-04-21T14:47:40.261Z,38.46
2019-04-21T14:52:50.599Z,33.93
2019-04-21T14:57:59.019Z,59.58
2019-04-21T15:03:07.668Z,970.26
2019-04-21T15:08:17.201Z,1999.69
2019-04-21T15:13:25.846Z,1999.68
2019-04-21T15:18:34.578Z,1999.69
2019-04-21T15:23:42.390Z,76.92
2019-04-21T15:28:51.081Z,34.01
2019-04-21T15:34:01.229Z,28.89
2019-04-21T15:39:09.982Z,26.21
2019-04-21T15:44:18.649Z,22.53
2019-04-21T15:49:38.612Z,21.85
2019-04-21T15:54:36.449Z,20.98
2019-04-21T15:59:44.460Z,20.54
2019-04-21T16:04:54.840Z,21.01
2019-04-21T16:10:04.890Z,20.65
2019-04-21T16:15:12.394Z,19.53
2019-04-21T16:20:20.014Z,19.55
2019-04-21T16:25:30.340Z,19.83
2019-04-21T16:30:38.356Z,18.65
2019-04-21T16:35:47.634Z,17.97
2019-04-21T16:41:00.962Z,17.10
2019-04-21T16:46:06.710Z,17.42
2019-04-21T16:51:15.410Z,16.98
2019-04-21T16:56:22.975Z,17.24
2019-04-21T17:01:32.296Z,16.16
2019-04-21T17:06:44.943Z,16.30
2019-04-21T17:11:44.655Z,14.68
2019-04-21T17:17:08.660Z,14.53
2019-04-21T17:21:59.828Z,16.64
2019-04-21T17:27:09.147Z,17.26
2019-04-21T17:32:18.417Z,14.86
2019-04-21T17:37:29.199Z,15.16
2019-04-21T17:42:44.990Z,14.34
2019-04-21T17:47:50.634Z,13.90
2019-04-21T17:52:57.345Z,13.68
2019-04-21T17:58:16.326Z,14.76
2019-04-21T18:03:40.661Z,13.93
2019-04-21T18:08:43.001Z,15.29
2019-04-21T18:13:28.903Z,729.26
2019-04-21T18:18:39.059Z,14.08
2019-04-21T18:23:52.882Z,13.58
2019-04-21T18:28:58.899Z,14.86
2019-04-21T18:34:08.778Z,14.98
2019-04-21T18:39:28.817Z,13.39
2019-04-21T18:44:53.794Z,13.02
2019-04-21T18:49:31.127Z,12.77
2019-04-21T18:54:53.894Z,14.93
2019-04-21T18:59:49.280Z,12.56
2019-04-21T19:05:01.506Z,12.96
2019-04-21T19:10:28.234Z,12.41
2019-04-21T19:15:28.134Z,13.77
2019-04-21T19:20:39.462Z,11.99
2019-04-21T19:25:55.516Z,11.35
2019-04-21T19:31:05.118Z,11.64
2019-04-21T19:35:49.736Z,12.27
2019-04-21T19:41:15.837Z,10.97
2019-04-21T19:46:26.438Z,12.14
2019-04-21T19:51:23.185Z,12.57
2019-04-21T19:56:24.112Z,11.80
2019-04-21T20:01:32.174Z,12.22
2019-04-21T20:06:54.936Z,12.69
2019-04-21T20:12:08.240Z,12.88
2019-04-21T20:17:09.937Z,14.43
2019-04-21T20:22:09.215Z,13.25
2019-04-21T20:27:24.128Z,16.23
2019-04-21T20:32:46.395Z,13.82
2019-04-21T20:37:51.543Z,15.70
2019-04-21T20:42:58.555Z,14.89
2019-04-21T20:47:54.186Z,15.67
2019-04-21T20:53:16.521Z,16.47
2019-04-21T20:58:24.048Z,16.15
2019-04-21T21:03:34.882Z,15.23
2019-04-21T21:08:42.145Z,18.87
2019-04-21T21:13:55.416Z,18.98
2019-04-21T21:19:10.313Z,17.99
2019-04-21T21:24:08.616Z,18.48
2019-04-21T21:29:20.482Z,20.01
2019-04-21T21:34:28.095Z,19.40
2019-04-21T21:39:48.855Z,19.26
2019-04-21T21:44:30.016Z,17.08
2019-04-21T21:49:52.544Z,18.64
2019-04-21T21:54:45.596Z,17.88
2019-04-21T21:59:58.920Z,19.38
2019-04-21T22:05:09.455Z,18.85
2019-04-21T22:10:12.510Z,19.03
2019-04-21T22:15:25.938Z,17.26
2019-04-21T22:20:43.151Z,17.39
2019-04-21T22:25:39.868Z,17.42
2019-04-21T22:30:49.727Z,18.48
2019-04-21T22:36:03.756Z,17.57
2019-04-21T22:41:18.131Z,16.26
2019-04-21T22:46:14.034Z,17.57
2019-04-21T22:51:28.466Z,18.64
2019-04-21T22:56:31.981Z,16.33
2019-04-21T23:01:42.413Z,16.31
2019-04-21T23:06:48.760Z,15.63
2019-04-21T23:11:56.600Z,14.88
2019-04-21T23:17:23.940Z,16.92
2019-04-21T23:22:31.249Z,16.79
2019-04-21T23:27:42.580Z,15.56
2019-04-21T23:32:40.969Z,15.10
2019-04-21T23:37:44.637Z,14.92
2019-04-21T23:42:49.145Z,15.71
2019-04-21T23:48:10.862Z,16.42
2019-04-21T23:53:05.719Z,16.33
2019-04-21T23:58:21.600Z,16.69
